createdAt,value
2019-04-30T00:00:34.842Z,85.57
2019-04-30T00:03:11.471Z,86.43
2019-04-30T00:05:38.203Z,86.25
2019-04-30T00:08:07.508Z,86.53
2019-04-30T00:10:41.203Z,86.38
2019-04-30T00:13:10.488Z,86.45
2019-04-30T00:15:39.322Z,86.21
2019-04-30T00:18:08.536Z,86.74
2019-04-30T00:20:38.745Z,86.77
2019-04-30T00:23:08.351Z,86.71
2019-04-30T00:25:37.669Z,86.84
2019-04-30T00:28:08.730Z,87.18
2019-04-30T00:30:39.254Z,87.14
2019-04-30T00:33:09.223Z,87.48
2019-04-30T00:35:38.623Z,87.57
2019-04-30T00:38:08.065Z,86.94
2019-04-30T00:40:37.420Z,86.86
2019-04-30T00:43:09.001Z,86.74
2019-04-30T00:45:40.062Z,85.73
2019-04-30T00:48:09.028Z,86.27
2019-04-30T00:50:38.368Z,86.08
2019-04-30T00:53:12.819Z,86.39
2019-04-30T00:55:44.382Z,86.40
2019-04-30T00:58:09.830Z,85.23
2019-04-30T01:00:48.397Z,84.79
2019-04-30T01:03:21.876Z,85.10
2019-04-30T01:05:51.186Z,85.41
2019-04-30T01:08:21.157Z,84.49
2019-04-30T01:10:51.758Z,83.10
2019-04-30T01:13:21.110Z,82.84
2019-04-30T01:15:52.483Z,83.28
2019-04-30T01:18:23.680Z,83.26
2019-04-30T01:20:52.586Z,83.66
2019-04-30T01:23:22.412Z,83.72
2019-04-30T01:25:51.813Z,84.04
2019-04-30T01:28:24.246Z,84.04
2019-04-30T01:30:53.878Z,83.90
2019-04-30T01:33:23.448Z,84.44
2019-04-30T01:35:52.798Z,84.91
2019-04-30T01:38:22.171Z,85.09
2019-04-30T01:40:51.587Z,85.55
2019-04-30T01:43:30.451Z,85.78
2019-04-30T01:45:51.985Z,85.55
2019-04-30T01:48:21.320Z,85.62
2019-04-30T01:50:50.732Z,85.76
2019-04-30T01:53:20.039Z,86.63
2019-04-30T01:55:59.079Z,86.99
2019-04-30T01:58:33.765Z,87.48
2019-04-30T02:01:06.829Z,88.32
2019-04-30T02:03:36.166Z,88.21
2019-04-30T02:06:05.592Z,88.15
2019-04-30T02:08:34.959Z,88.31
2019-04-30T02:11:04.253Z,88.88
2019-04-30T02:13:34.573Z,88.93
2019-04-30T02:16:04.045Z,89.01
2019-04-30T02:18:33.332Z,89.49
2019-04-30T02:21:02.579Z,89.65
2019-04-30T02:23:31.953Z,88.92
2019-04-30T02:26:01.298Z,88.25
2019-04-30T02:28:30.666Z,88.46
2019-04-30T02:31:00.598Z,87.72
2019-04-30T02:33:31.677Z,87.83
2019-04-30T02:36:19.848Z,87.93
2019-04-30T02:38:51.376Z,87.03
2019-04-30T02:41:21.154Z,86.76
2019-04-30T02:43:52.236Z,86.34
2019-04-30T02:46:23.158Z,86.84
2019-04-30T02:48:55.069Z,87.78
2019-04-30T02:51:29.908Z,87.77
2019-04-30T02:54:24.194Z,88.07
2019-04-30T02:56:59.634Z,88.14
2019-04-30T02:59:30.042Z,88.52
2019-04-30T03:01:59.908Z,88.48
2019-04-30T03:04:29.489Z,88.98
2019-04-30T03:06:59.817Z,88.83
2019-04-30T03:09:29.892Z,88.91
2019-04-30T03:12:00.208Z,88.06
2019-04-30T03:14:30.162Z,87.62
2019-04-30T03:17:29.395Z,87.96
2019-04-30T03:20:10.698Z,87.83
2019-04-30T03:22:40.028Z,88.20
2019-04-30T03:25:09.545Z,88.33
2019-04-30T03:27:42.230Z,87.89
2019-04-30T03:30:11.763Z,87.62
2019-04-30T03:32:42.875Z,87.92
2019-04-30T03:35:13.178Z,88.09
2019-04-30T03:37:42.619Z,88.42
2019-04-30T03:40:13.298Z,88.58
2019-04-30T03:42:42.701Z,88.77
2019-04-30T03:45:12.201Z,88.05
2019-04-30T03:47:43.221Z,87.79
2019-04-30T03:50:12.697Z,87.72
2019-04-30T03:52:41.938Z,88.40
2019-04-30T03:55:11.227Z,88.96
2019-04-30T03:57:40.707Z,87.16
2019-04-30T04:00:14.156Z,85.77
2019-04-30T04:02:45.400Z,84.70
2019-04-30T04:05:36.832Z,82.97
2019-04-30T04:08:31.201Z,81.13
2019-04-30T04:11:22.484Z,80.95
2019-04-30T04:13:51.869Z,80.59
2019-04-30T04:16:21.201Z,79.72
2019-04-30T04:18:50.494Z,80.08
2019-04-30T04:21:20.783Z,80.38
2019-04-30T04:23:50.151Z,80.52
2019-04-30T04:26:20.272Z,80.13
2019-04-30T04:28:49.941Z,79.60
2019-04-30T04:31:19.555Z,79.22
2019-04-30T04:33:52.287Z,78.00
2019-04-30T04:36:20.152Z,76.38
2019-04-30T04:38:50.661Z,75.46
2019-04-30T04:41:20.282Z,73.93
2019-04-30T04:43:50.462Z,72.32
2019-04-30T04:46:20.687Z,70.06
2019-04-30T04:48:50.158Z,68.93
2019-04-30T04:51:31.294Z,67.76
2019-04-30T04:53:50.525Z,66.33
2019-04-30T04:56:19.806Z,63.23
2019-04-30T04:58:50.162Z,60.55
2019-04-30T05:01:20.515Z,58.64
2019-04-30T05:03:49.826Z,58.34
2019-04-30T05:06:22.019Z,56.95
2019-04-30T05:08:50.379Z,54.98
2019-04-30T05:11:19.703Z,54.03
2019-04-30T05:13:49.164Z,54.59
2019-04-30T05:16:19.055Z,51.79
2019-04-30T05:18:48.889Z,50.86
2019-04-30T05:21:18.773Z,51.31
2019-04-30T05:23:49.297Z,53.31
2019-04-30T05:26:19.209Z,53.36
2019-04-30T05:28:52.470Z,53.81
2019-04-30T05:31:21.100Z,54.04
2019-04-30T05:33:50.553Z,50.84
2019-04-30T05:36:19.999Z,50.08
2019-04-30T05:38:49.259Z,52.05
2019-04-30T05:41:19.281Z,52.05
2019-04-30T05:43:49.002Z,54.40
2019-04-30T05:46:19.594Z,56.09
2019-04-30T05:48:49.517Z,55.74
2019-04-30T05:51:21.176Z,48.94
2019-04-30T05:53:50.062Z,47.52
2019-04-30T05:56:19.480Z,45.11
2019-04-30T05:58:49.474Z,43.49
2019-04-30T06:01:19.643Z,42.70
2019-04-30T06:03:49.144Z,41.45
2019-04-30T06:06:19.281Z,39.11
2019-04-30T06:09:06.234Z,39.68
2019-04-30T06:11:49.186Z,39.20
2019-04-30T06:14:46.639Z,40.89
2019-04-30T06:17:11.310Z,40.48
2019-04-30T06:19:40.725Z,41.20
2019-04-30T06:22:11.041Z,41.80
2019-04-30T06:24:40.581Z,43.10
2019-04-30T06:27:10.866Z,40.19
2019-04-30T06:29:40.599Z,40.76
2019-04-30T06:32:09.999Z,38.86
2019-04-30T06:34:41.973Z,38.06
2019-04-30T06:37:11.121Z,38.12
2019-04-30T06:39:40.570Z,38.30
2019-04-30T06:42:12.827Z,35.60
2019-04-30T06:44:41.978Z,35.85
2019-04-30T06:47:11.668Z,34.55
2019-04-30T06:49:40.958Z,34.51
2019-04-30T06:52:20.267Z,34.48
2019-04-30T06:54:41.741Z,31.16
2019-04-30T06:57:12.155Z,31.22
2019-04-30T06:59:41.517Z,31.06
2019-04-30T07:02:10.804Z,32.92
2019-04-30T07:04:40.288Z,33.44
2019-04-30T07:07:09.704Z,33.82
2019-04-30T07:10:00.569Z,32.29
2019-04-30T07:13:05.819Z,34.86
2019-04-30T07:15:35.170Z,33.66
2019-04-30T07:18:04.450Z,33.96
2019-04-30T07:20:34.158Z,32.93
2019-04-30T07:23:03.555Z,30.90
2019-04-30T07:25:32.809Z,31.07
2019-04-30T07:28:02.161Z,30.92
2019-04-30T07:30:31.787Z,31.61
2019-04-30T07:33:01.172Z,28.88
2019-04-30T07:35:30.548Z,27.11
2019-04-30T07:38:04.693Z,25.74
2019-04-30T07:40:30.819Z,25.14
2019-04-30T07:43:00.129Z,25.96
2019-04-30T07:45:32.043Z,26.45
2019-04-30T07:48:00.544Z,24.92
2019-04-30T07:50:31.270Z,26.72
2019-04-30T07:53:05.850Z,27.03
2019-04-30T07:55:32.320Z,26.95
2019-04-30T07:58:01.569Z,27.87
2019-04-30T08:00:31.341Z,27.25
2019-04-30T08:03:11.618Z,29.06
2019-04-30T08:05:43.430Z,29.10
2019-04-30T08:08:20.775Z,27.99
2019-04-30T08:10:43.925Z,28.79
2019-04-30T08:13:15.072Z,26.59
2019-04-30T08:15:44.350Z,25.59
2019-04-30T08:18:13.858Z,21.42
2019-04-30T08:20:43.096Z,21.42
2019-04-30T08:23:20.254Z,22.18
2019-04-30T08:25:43.554Z,19.02
2019-04-30T08:28:12.872Z,18.37
2019-04-30T08:30:42.171Z,18.77
2019-04-30T08:33:11.465Z,18.82
2019-04-30T08:35:40.727Z,16.64
2019-04-30T08:38:10.854Z,17.03
2019-04-30T08:40:52.841Z,18.13
2019-04-30T08:43:11.544Z,18.52
2019-04-30T08:45:41.114Z,17.95
2019-04-30T08:48:10.395Z,16.57
2019-04-30T08:50:40.655Z,16.09
2019-04-30T08:53:11.154Z,15.23
2019-04-30T08:55:40.779Z,14.54
2019-04-30T08:58:14.865Z,16.47
2019-04-30T09:00:41.132Z,16.72
2019-04-30T09:03:10.542Z,15.50
2019-04-30T09:05:58.956Z,16.37
2019-04-30T09:08:29.433Z,16.23
2019-04-30T09:10:59.537Z,16.90
2019-04-30T09:13:28.990Z,16.31
2019-04-30T09:15:59.366Z,16.00
2019-04-30T09:18:29.274Z,16.15
2019-04-30T09:21:06.070Z,15.79
2019-04-30T09:23:43.019Z,17.32
2019-04-30T09:26:00.845Z,14.73
2019-04-30T09:28:30.205Z,13.89
2019-04-30T09:30:59.445Z,14.84
2019-04-30T09:33:29.413Z,14.71
2019-04-30T09:35:59.546Z,14.41
2019-04-30T09:38:29.138Z,14.82
2019-04-30T09:40:59.395Z,15.24
2019-04-30T09:43:30.014Z,15.07
2019-04-30T09:45:59.861Z,15.94
2019-04-30T09:48:30.629Z,17.60
2019-04-30T09:51:01.064Z,17.20
2019-04-30T09:53:31.521Z,15.93
2019-04-30T09:56:00.974Z,15.65
2019-04-30T09:58:30.400Z,15.39
2019-04-30T10:00:59.890Z,15.67
2019-04-30T10:03:30.721Z,17.18
2019-04-30T10:06:00.224Z,17.91
2019-04-30T10:08:30.731Z,18.57
2019-04-30T10:11:09.855Z,16.68
2019-04-30T10:13:39.127Z,17.73
2019-04-30T10:16:29.529Z,17.15
2019-04-30T10:18:59.236Z,16.20
2019-04-30T10:21:29.804Z,17.55
2019-04-30T10:24:12.494Z,18.12
2019-04-30T10:26:30.850Z,19.13
2019-04-30T10:29:00.577Z,21.21
2019-04-30T10:31:29.862Z,21.61
2019-04-30T10:33:59.248Z,20.93
2019-04-30T10:36:29.539Z,21.19
2019-04-30T10:38:59.491Z,22.91
2019-04-30T10:41:29.120Z,22.89
2019-04-30T10:43:59.156Z,23.02
2019-04-30T10:46:28.538Z,23.71
2019-04-30T10:48:57.850Z,26.20
2019-04-30T10:51:28.835Z,25.86
2019-04-30T10:53:59.154Z,25.86
2019-04-30T10:56:29.152Z,25.95
2019-04-30T10:58:59.221Z,27.14
2019-04-30T11:01:29.190Z,25.76
2019-04-30T11:03:58.567Z,27.23
2019-04-30T11:06:27.966Z,28.11
2019-04-30T11:08:57.318Z,29.46
2019-04-30T11:11:28.285Z,29.50
2019-04-30T11:13:57.734Z,30.53
2019-04-30T11:16:27.141Z,29.50
2019-04-30T11:18:56.660Z,29.24
2019-04-30T11:21:26.259Z,28.36
2019-04-30T11:23:55.911Z,26.66
2019-04-30T11:26:25.864Z,26.69
2019-04-30T11:28:55.986Z,27.72
2019-04-30T11:31:49.248Z,25.80
2019-04-30T11:34:18.658Z,25.21
2019-04-30T11:36:47.970Z,25.96
2019-04-30T11:39:19.823Z,25.45
2019-04-30T11:41:49.202Z,25.06
2019-04-30T11:44:30.243Z,25.53
2019-04-30T11:47:19.707Z,25.49
2019-04-30T11:49:49.003Z,27.28
2019-04-30T11:52:18.625Z,26.88
2019-04-30T11:54:52.013Z,28.31
2019-04-30T11:57:19.443Z,27.15
2019-04-30T11:59:49.005Z,27.72
2019-04-30T12:02:23.125Z,26.31
2019-04-30T12:04:52.564Z,24.17
2019-04-30T12:07:34.514Z,25.09
2019-04-30T12:10:19.362Z,26.55
2019-04-30T12:12:48.753Z,24.46
2019-04-30T12:15:19.233Z,25.12
2019-04-30T12:17:48.506Z,24.52
2019-04-30T12:20:19.685Z,23.62
2019-04-30T12:22:49.416Z,23.02
2019-04-30T12:25:18.838Z,23.45
2019-04-30T12:27:48.954Z,23.36
2019-04-30T12:30:20.709Z,22.39
2019-04-30T12:32:49.790Z,23.51
2019-04-30T12:35:19.283Z,23.93
2019-04-30T12:37:50.819Z,23.41
2019-04-30T12:40:28.694Z,23.43
2019-04-30T12:42:50.789Z,24.04
2019-04-30T12:45:20.085Z,24.28
2019-04-30T12:47:54.031Z,25.76
2019-04-30T12:50:29.223Z,26.23
2019-04-30T12:53:02.037Z,28.10
2019-04-30T12:55:50.282Z,27.95
2019-04-30T12:58:20.779Z,30.45
2019-04-30T13:00:50.200Z,28.71
2019-04-30T13:03:19.537Z,28.70
2019-04-30T13:05:50.647Z,30.06
2019-04-30T13:08:21.311Z,30.68
2019-04-30T13:10:51.995Z,30.17
2019-04-30T13:13:22.064Z,32.26
2019-04-30T13:15:51.771Z,33.51
2019-04-30T13:18:21.082Z,35.38
2019-04-30T13:20:50.510Z,33.56
2019-04-30T13:23:19.884Z,36.68
2019-04-30T13:25:51.639Z,38.40
2019-04-30T13:28:22.325Z,34.30
2019-04-30T13:30:51.631Z,35.88
2019-04-30T13:33:32.878Z,36.07
2019-04-30T13:36:02.180Z,29.51
2019-04-30T13:38:52.331Z,30.88
2019-04-30T13:41:51.075Z,28.80
2019-04-30T13:44:33.074Z,31.91
2019-04-30T13:47:02.447Z,30.36
2019-04-30T13:49:31.813Z,27.97
2019-04-30T13:52:01.246Z,28.18
2019-04-30T13:54:30.552Z,28.29
2019-04-30T13:56:59.885Z,27.36
2019-04-30T13:59:29.369Z,30.37
2019-04-30T14:01:58.896Z,30.99
2019-04-30T14:04:46.943Z,31.74
2019-04-30T14:07:50.245Z,31.40
2019-04-30T14:10:19.682Z,29.23
2019-04-30T14:12:53.822Z,28.62
2019-04-30T14:15:23.437Z,29.07
2019-04-30T14:17:52.745Z,31.87
2019-04-30T14:20:22.058Z,33.07
2019-04-30T14:22:51.537Z,32.77
2019-04-30T14:25:20.852Z,30.53
2019-04-30T14:27:54.494Z,33.95
2019-04-30T14:30:21.910Z,33.47
2019-04-30T14:32:51.330Z,34.61
2019-04-30T14:35:20.577Z,35.92
2019-04-30T14:37:49.896Z,36.41
2019-04-30T14:40:20.472Z,36.42
2019-04-30T14:43:02.983Z,36.84
2019-04-30T14:45:40.970Z,37.62
2019-04-30T14:48:17.885Z,37.24
2019-04-30T14:50:48.983Z,37.98
2019-04-30T14:53:30.590Z,38.60
2019-04-30T14:56:21.900Z,39.72
2019-04-30T14:59:19.347Z,40.48
2019-04-30T15:01:52.847Z,41.41
2019-04-30T15:04:22.244Z,43.42
2019-04-30T15:06:51.560Z,44.38
2019-04-30T15:09:21.092Z,44.97
2019-04-30T15:11:50.588Z,45.51
2019-04-30T15:14:19.882Z,46.86
2019-04-30T15:16:49.185Z,47.86
2019-04-30T15:19:18.701Z,47.99
2019-04-30T15:21:48.010Z,49.71
2019-04-30T15:24:30.517Z,50.92
2019-04-30T15:26:59.829Z,52.20
2019-04-30T15:29:29.209Z,52.67
2019-04-30T15:31:59.273Z,53.20
2019-04-30T15:34:29.426Z,54.21
2019-04-30T15:36:59.250Z,54.59
2019-04-30T15:39:34.835Z,54.71
2019-04-30T15:42:04.730Z,55.33
2019-04-30T15:44:40.093Z,55.93
2019-04-30T15:47:06.192Z,56.88
2019-04-30T15:49:35.646Z,58.22
2019-04-30T15:52:05.333Z,58.87
2019-04-30T15:54:34.794Z,59.80
2019-04-30T15:57:04.406Z,60.65
2019-04-30T15:59:39.483Z,61.13
2019-04-30T16:02:34.100Z,61.81
2019-04-30T16:05:12.494Z,61.83
2019-04-30T16:07:49.486Z,62.50
2019-04-30T16:10:41.478Z,62.49
2019-04-30T16:13:19.503Z,62.52
2019-04-30T16:15:49.227Z,62.83
2019-04-30T16:18:19.575Z,63.46
2019-04-30T16:20:49.844Z,63.58
2019-04-30T16:23:19.265Z,63.98
2019-04-30T16:25:48.574Z,64.46
2019-04-30T16:28:19.588Z,64.55
2019-04-30T16:30:49.039Z,64.85
2019-04-30T16:33:19.457Z,64.48
2019-04-30T16:35:51.030Z,64.75
2019-04-30T16:38:20.936Z,65.64
2019-04-30T16:40:50.350Z,66.10
2019-04-30T16:43:20.369Z,66.41
2019-04-30T16:45:49.737Z,66.90
2019-04-30T16:48:19.477Z,67.24
2019-04-30T16:50:51.226Z,67.25
2019-04-30T16:53:20.246Z,67.44
2019-04-30T16:55:50.607Z,67.35
2019-04-30T16:58:20.029Z,67.10
2019-04-30T17:00:49.441Z,67.25
2019-04-30T17:03:31.342Z,66.89
2019-04-30T17:06:06.584Z,66.97
2019-04-30T17:08:43.726Z,67.23
2019-04-30T17:11:30.709Z,67.29
2019-04-30T17:14:02.981Z,67.29
2019-04-30T17:16:32.419Z,67.38
2019-04-30T17:19:01.770Z,67.99
2019-04-30T17:21:31.204Z,68.28
2019-04-30T17:24:00.665Z,68.65
2019-04-30T17:26:29.984Z,68.87
2019-04-30T17:28:59.855Z,68.98
2019-04-30T17:31:29.471Z,69.45
2019-04-30T17:33:58.781Z,69.61
2019-04-30T17:36:29.773Z,70.09
2019-04-30T17:38:59.431Z,70.17
2019-04-30T17:41:28.748Z,70.41
2019-04-30T17:43:58.997Z,70.51
2019-04-30T17:46:28.597Z,70.73
2019-04-30T17:48:59.292Z,71.35
2019-04-30T17:51:28.655Z,71.33
2019-04-30T17:54:16.367Z,71.73
2019-04-30T17:56:46.605Z,71.25
2019-04-30T17:59:16.085Z,69.83
2019-04-30T18:01:54.160Z,69.30
2019-04-30T18:04:23.733Z,68.51
2019-04-30T18:06:53.079Z,69.22
2019-04-30T18:09:22.478Z,69.19
2019-04-30T18:11:51.731Z,67.76
2019-04-30T18:14:21.120Z,66.91
2019-04-30T18:16:50.759Z,65.42
2019-04-30T18:19:42.036Z,65.31
2019-04-30T18:22:36.628Z,64.91
2019-04-30T18:25:23.813Z,64.54
2019-04-30T18:27:59.488Z,64.30
2019-04-30T18:30:33.290Z,64.29
2019-04-30T18:33:03.295Z,64.17
2019-04-30T18:35:32.596Z,64.78
2019-04-30T18:38:01.875Z,65.27
2019-04-30T18:40:31.403Z,65.16
2019-04-30T18:43:00.667Z,65.56
2019-04-30T18:45:30.137Z,65.18
2019-04-30T18:48:01.518Z,63.94
2019-04-30T18:50:30.469Z,64.07
2019-04-30T18:53:02.329Z,63.53
2019-04-30T18:55:31.633Z,63.61
2019-04-30T18:58:01.455Z,63.85
2019-04-30T19:00:40.383Z,62.57
2019-04-30T19:03:09.718Z,62.67
2019-04-30T19:05:40.359Z,62.64
2019-04-30T19:08:19.495Z,62.83
2019-04-30T19:11:02.882Z,63.11
2019-04-30T19:13:51.190Z,63.00
2019-04-30T19:16:45.663Z,63.49
2019-04-30T19:19:20.226Z,63.81
2019-04-30T19:21:49.612Z,64.19
2019-04-30T19:24:19.777Z,64.46
2019-04-30T19:26:49.320Z,64.74
2019-04-30T19:29:18.550Z,64.43
2019-04-30T19:31:49.463Z,63.82
2019-04-30T19:34:19.073Z,64.03
2019-04-30T19:36:49.251Z,64.48
2019-04-30T19:39:20.038Z,64.90
2019-04-30T19:41:49.433Z,65.41
2019-04-30T19:44:20.633Z,65.32
2019-04-30T19:46:49.942Z,65.35
2019-04-30T19:49:19.332Z,66.36
2019-04-30T19:51:49.506Z,66.56
2019-04-30T19:54:19.884Z,67.19
2019-04-30T19:56:50.178Z,67.28
2019-04-30T19:59:19.514Z,68.00
2019-04-30T20:01:48.925Z,67.77
2019-04-30T20:04:18.637Z,68.24
2019-04-30T20:06:48.717Z,68.83
2019-04-30T20:09:19.391Z,69.03
2019-04-30T20:11:49.320Z,68.89
2019-04-30T20:14:18.809Z,68.34
2019-04-30T20:16:48.635Z,68.67
2019-04-30T20:19:18.153Z,69.05
2019-04-30T20:21:53.065Z,69.33
2019-04-30T20:24:19.077Z,70.08
2019-04-30T20:26:51.595Z,70.62
2019-04-30T20:29:20.938Z,69.82
2019-04-30T20:31:50.247Z,69.70
2019-04-30T20:34:19.604Z,69.40
2019-04-30T20:36:49.072Z,70.51
2019-04-30T20:39:31.863Z,70.99
2019-04-30T20:42:01.155Z,71.10
2019-04-30T20:44:30.799Z,72.57
2019-04-30T20:47:00.178Z,72.34
2019-04-30T20:49:29.550Z,71.65
2019-04-30T20:51:59.068Z,71.58
2019-04-30T20:54:29.109Z,72.32
2019-04-30T20:56:59.095Z,71.77
2019-04-30T20:59:29.035Z,72.81
2019-04-30T21:01:58.491Z,73.03
2019-04-30T21:04:27.903Z,72.97
2019-04-30T21:06:59.358Z,72.93
2019-04-30T21:09:28.401Z,72.75
2019-04-30T21:11:58.766Z,74.61
2019-04-30T21:14:28.139Z,75.86
2019-04-30T21:16:57.432Z,77.60
2019-04-30T21:19:26.762Z,77.21
2019-04-30T21:21:56.139Z,77.85
2019-04-30T21:24:25.456Z,76.75
2019-04-30T21:26:54.872Z,76.35
2019-04-30T21:29:24.257Z,75.31
2019-04-30T21:32:12.624Z,76.26
2019-04-30T21:35:06.818Z,75.75
2019-04-30T21:37:36.314Z,76.44
2019-04-30T21:40:06.083Z,76.13
2019-04-30T21:42:35.385Z,75.38
2019-04-30T21:45:05.195Z,75.28
2019-04-30T21:47:34.594Z,75.81
2019-04-30T21:50:04.394Z,75.73
2019-04-30T21:52:34.008Z,77.36
2019-04-30T21:55:03.680Z,78.39
2019-04-30T21:57:33.067Z,78.73
2019-04-30T22:00:02.358Z,78.42
2019-04-30T22:02:31.711Z,78.67
2019-04-30T22:05:01.061Z,78.83
2019-04-30T22:07:30.604Z,78.73
2019-04-30T22:09:59.873Z,79.34
2019-04-30T22:12:31.135Z,80.04
2019-04-30T22:15:00.336Z,79.84
2019-04-30T22:17:29.604Z,80.12
2019-04-30T22:19:59.663Z,80.98
2019-04-30T22:22:29.239Z,81.00
2019-04-30T22:24:59.682Z,80.54
2019-04-30T22:27:29.048Z,80.51
2019-04-30T22:29:58.510Z,80.73
2019-04-30T22:32:27.797Z,80.89
2019-04-30T22:35:08.267Z,80.69
2019-04-30T22:37:37.606Z,81.24
2019-04-30T22:40:09.326Z,80.91
2019-04-30T22:42:39.977Z,80.75
2019-04-30T22:45:35.942Z,80.36
2019-04-30T22:48:05.259Z,80.59
2019-04-30T22:50:34.573Z,81.59
2019-04-30T22:53:03.988Z,81.66
2019-04-30T22:55:33.560Z,81.75
2019-04-30T22:58:02.850Z,82.13
2019-04-30T23:00:39.408Z,81.65
2019-04-30T23:03:11.646Z,81.56
2019-04-30T23:05:40.971Z,81.77
2019-04-30T23:08:10.334Z,82.30
2019-04-30T23:10:39.646Z,82.16
2019-04-30T23:13:09.007Z,82.22
2019-04-30T23:15:38.321Z,82.29
2019-04-30T23:18:07.825Z,82.40
2019-04-30T23:20:37.361Z,82.61
2019-04-30T23:23:06.621Z,82.81
2019-04-30T23:25:35.948Z,83.00
2019-04-30T23:28:05.482Z,82.92
2019-04-30T23:30:34.808Z,82.85
2019-04-30T23:33:04.122Z,82.06
2019-04-30T23:35:33.424Z,81.84
2019-04-30T23:38:02.826Z,82.04
2019-04-30T23:40:48.110Z,82.13
2019-04-30T23:43:17.663Z,82.37
2019-04-30T23:45:47.033Z,82.51
2019-04-30T23:48:16.512Z,82.53
2019-04-30T23:50:45.865Z,83.01
2019-04-30T23:53:15.138Z,83.06
2019-04-30T23:55:44.446Z,83.61
2019-04-30T23:58:13.864Z,84.33
